sensor_id;sensor_type;location;lat;lon;timestamp;P1;durP1;ratioP1;P2;durP2;ratioP2
22080;SDS011;11207;59.512;18.050;2023-07-09T00:01:03;3.53;;;3.00;;
22080;SDS011;11207;59.512;18.050;2023-07-09T00:03:29;5.70;;;2.90;;
22080;SDS011;11207;59.512;18.050;2023-07-09T00:05:54;3.50;;;3.20;;
22080;SDS011;11207;59.512;18.050;2023-07-09T00:08:25;3.00;;;2.80;;
22080;SDS011;11207;59.512;18.050;2023-07-09T00:10:54;3.40;;;3.03;;
22080;SDS011;11207;59.512;18.050;2023-07-09T00:13:21;4.47;;;3.10;;
22080;SDS011;11207;59.512;18.050;2023-07-09T00:15:48;3.10;;;2.90;;
22080;SDS011;11207;59.512;18.050;2023-07-09T00:18:14;2.90;;;2.70;;
22080;SDS011;11207;59.512;18.050;2023-07-09T00:20:39;3.30;;;3.00;;
22080;SDS011;11207;59.512;18.050;2023-07-09T00:23:08;3.80;;;3.00;;
22080;SDS011;11207;59.512;18.050;2023-07-09T00:25:34;3.73;;;3.10;;
22080;SDS011;11207;59.512;18.050;2023-07-09T00:28:01;3.67;;;3.37;;
22080;SDS011;11207;59.512;18.050;2023-07-09T00:30:27;2.83;;;2.63;;
22080;SDS011;11207;59.512;18.050;2023-07-09T00:32:53;4.13;;;3.37;;
22080;SDS011;11207;59.512;18.050;2023-07-09T00:35:19;5.13;;;3.00;;
22080;SDS011;11207;59.512;18.050;2023-07-09T00:37:46;4.63;;;3.43;;
22080;SDS011;11207;59.512;18.050;2023-07-09T00:40:17;4.80;;;3.27;;
22080;SDS011;11207;59.512;18.050;2023-07-09T00:42:46;4.00;;;2.80;;
22080;SDS011;11207;59.512;18.050;2023-07-09T00:45:17;3.10;;;2.83;;
22080;SDS011;11207;59.512;18.050;2023-07-09T00:50:22;7.07;;;2.90;;
22080;SDS011;11207;59.512;18.050;2023-07-09T00:52:54;5.00;;;2.90;;
22080;SDS011;11207;59.512;18.050;2023-07-09T00:55:24;3.70;;;3.13;;
22080;SDS011;11207;59.512;18.050;2023-07-09T00:57:55;3.23;;;2.93;;
22080;SDS011;11207;59.512;18.050;2023-07-09T01:00:25;3.00;;;2.77;;
22080;SDS011;11207;59.512;18.050;2023-07-09T01:03:00;3.10;;;2.80;;
22080;SDS011;11207;59.512;18.050;2023-07-09T01:05:29;3.10;;;2.80;;
22080;SDS011;11207;59.512;18.050;2023-07-09T01:07:55;3.77;;;3.07;;
22080;SDS011;11207;59.512;18.050;2023-07-09T01:10:23;5.10;;;3.20;;
22080;SDS011;11207;59.512;18.050;2023-07-09T01:12:49;3.33;;;3.03;;
22080;SDS011;11207;59.512;18.050;2023-07-09T01:15:15;4.00;;;2.90;;
22080;SDS011;11207;59.512;18.050;2023-07-09T01:17:41;2.97;;;2.77;;
22080;SDS011;11207;59.512;18.050;2023-07-09T01:20:09;2.93;;;2.73;;
22080;SDS011;11207;59.512;18.050;2023-07-09T01:22:41;3.03;;;2.80;;
22080;SDS011;11207;59.512;18.050;2023-07-09T01:25:07;5.00;;;3.40;;
22080;SDS011;11207;59.512;18.050;2023-07-09T01:27:39;3.10;;;2.90;;
22080;SDS011;11207;59.512;18.050;2023-07-09T01:30:08;5.10;;;3.07;;
22080;SDS011;11207;59.512;18.050;2023-07-09T01:32:36;3.60;;;3.30;;
22080;SDS011;11207;59.512;18.050;2023-07-09T01:35:04;4.33;;;2.80;;
22080;SDS011;11207;59.512;18.050;2023-07-09T01:37:32;3.37;;;2.80;;
22080;SDS011;11207;59.512;18.050;2023-07-09T01:39:59;3.30;;;3.00;;
22080;SDS011;11207;59.512;18.050;2023-07-09T01:42:25;3.30;;;3.00;;
22080;SDS011;11207;59.512;18.050;2023-07-09T01:44:53;7.00;;;3.60;;
22080;SDS011;11207;59.512;18.050;2023-07-09T01:47:20;3.20;;;2.90;;
22080;SDS011;11207;59.512;18.050;2023-07-09T01:49:47;4.43;;;2.97;;
22080;SDS011;11207;59.512;18.050;2023-07-09T01:52:14;8.07;;;3.77;;
22080;SDS011;11207;59.512;18.050;2023-07-09T01:54:41;3.20;;;2.90;;
22080;SDS011;11207;59.512;18.050;2023-07-09T01:57:21;3.67;;;3.03;;
22080;SDS011;11207;59.512;18.050;2023-07-09T01:59:54;5.27;;;3.00;;
22080;SDS011;11207;59.512;18.050;2023-07-09T02:02:21;2.60;;;2.40;;
22080;SDS011;11207;59.512;18.050;2023-07-09T02:04:47;3.13;;;2.80;;
22080;SDS011;11207;59.512;18.050;2023-07-09T02:07:14;5.43;;;2.80;;
22080;SDS011;11207;59.512;18.050;2023-07-09T02:09:41;3.20;;;2.90;;
22080;SDS011;11207;59.512;18.050;2023-07-09T02:12:07;3.30;;;3.00;;
22080;SDS011;11207;59.512;18.050;2023-07-09T02:14:33;3.20;;;2.90;;
22080;SDS011;11207;59.512;18.050;2023-07-09T02:16:59;3.10;;;2.90;;
22080;SDS011;11207;59.512;18.050;2023-07-09T02:19:24;4.80;;;3.13;;
22080;SDS011;11207;59.512;18.050;2023-07-09T02:21:50;4.80;;;3.33;;
22080;SDS011;11207;59.512;18.050;2023-07-09T02:24:16;3.10;;;2.80;;
22080;SDS011;11207;59.512;18.050;2023-07-09T02:26:41;3.47;;;3.17;;
22080;SDS011;11207;59.512;18.050;2023-07-09T02:29:07;3.63;;;2.90;;
22080;SDS011;11207;59.512;18.050;2023-07-09T02:31:33;3.63;;;3.00;;
22080;SDS011;11207;59.512;18.050;2023-07-09T02:33:59;3.33;;;3.03;;
22080;SDS011;11207;59.512;18.050;2023-07-09T02:36:25;4.80;;;3.27;;
22080;SDS011;11207;59.512;18.050;2023-07-09T02:38:51;3.00;;;2.80;;
22080;SDS011;11207;59.512;18.050;2023-07-09T02:41:16;3.10;;;2.87;;
22080;SDS011;11207;59.512;18.050;2023-07-09T02:43:42;3.33;;;3.03;;
22080;SDS011;11207;59.512;18.050;2023-07-09T02:46:08;3.87;;;2.83;;
22080;SDS011;11207;59.512;18.050;2023-07-09T02:48:33;3.70;;;3.30;;
22080;SDS011;11207;59.512;18.050;2023-07-09T02:50:59;3.53;;;3.23;;
22080;SDS011;11207;59.512;18.050;2023-07-09T02:53:25;4.03;;;3.00;;
22080;SDS011;11207;59.512;18.050;2023-07-09T02:55:52;4.17;;;3.40;;
22080;SDS011;11207;59.512;18.050;2023-07-09T02:58:17;6.50;;;3.20;;
22080;SDS011;11207;59.512;18.050;2023-07-09T03:00:43;3.60;;;3.17;;
22080;SDS011;11207;59.512;18.050;2023-07-09T03:03:16;5.93;;;3.67;;
22080;SDS011;11207;59.512;18.050;2023-07-09T03:05:44;3.73;;;3.43;;
22080;SDS011;11207;59.512;18.050;2023-07-09T03:08:10;3.93;;;3.27;;
22080;SDS011;11207;59.512;18.050;2023-07-09T03:10:36;6.17;;;3.27;;
22080;SDS011;11207;59.512;18.050;2023-07-09T03:13:01;3.40;;;3.10;;
22080;SDS011;11207;59.512;18.050;2023-07-09T03:15:27;4.53;;;3.33;;
22080;SDS011;11207;59.512;18.050;2023-07-09T03:17:52;4.97;;;3.47;;
22080;SDS011;11207;59.512;18.050;2023-07-09T03:20:18;5.97;;;3.17;;
22080;SDS011;11207;59.512;18.050;2023-07-09T03:22:43;5.33;;;3.33;;
22080;SDS011;11207;59.512;18.050;2023-07-09T03:25:09;4.27;;;3.20;;
22080;SDS011;11207;59.512;18.050;2023-07-09T03:27:35;3.73;;;3.07;;
22080;SDS011;11207;59.512;18.050;2023-07-09T03:30:00;4.00;;;3.60;;
22080;SDS011;11207;59.512;18.050;2023-07-09T03:32:26;4.20;;;3.60;;
22080;SDS011;11207;59.512;18.050;2023-07-09T03:34:51;3.30;;;3.00;;
22080;SDS011;11207;59.512;18.050;2023-07-09T03:37:18;3.50;;;3.20;;
22080;SDS011;11207;59.512;18.050;2023-07-09T03:39:45;4.70;;;3.27;;
22080;SDS011;11207;59.512;18.050;2023-07-09T03:42:11;4.73;;;3.33;;
22080;SDS011;11207;59.512;18.050;2023-07-09T03:44:36;3.63;;;3.27;;
22080;SDS011;11207;59.512;18.050;2023-07-09T03:47:02;3.60;;;3.30;;
22080;SDS011;11207;59.512;18.050;2023-07-09T03:49:28;3.93;;;3.17;;
22080;SDS011;11207;59.512;18.050;2023-07-09T03:51:54;3.57;;;3.27;;
22080;SDS011;11207;59.512;18.050;2023-07-09T03:54:19;4.10;;;3.60;;
22080;SDS011;11207;59.512;18.050;2023-07-09T03:56:45;3.40;;;3.10;;
22080;SDS011;11207;59.512;18.050;2023-07-09T03:59:10;3.90;;;3.07;;
22080;SDS011;11207;59.512;18.050;2023-07-09T04:01:36;3.40;;;3.10;;
22080;SDS011;11207;59.512;18.050;2023-07-09T04:04:02;3.40;;;3.10;;
22080;SDS011;11207;59.512;18.050;2023-07-09T04:06:28;4.93;;;3.40;;
22080;SDS011;11207;59.512;18.050;2023-07-09T04:08:54;4.43;;;3.30;;
22080;SDS011;11207;59.512;18.050;2023-07-09T04:11:19;3.47;;;3.17;;
22080;SDS011;11207;59.512;18.050;2023-07-09T04:13:45;4.33;;;3.63;;
22080;SDS011;11207;59.512;18.050;2023-07-09T04:16:11;3.70;;;3.27;;
22080;SDS011;11207;59.512;18.050;2023-07-09T04:18:37;5.00;;;3.47;;
22080;SDS011;11207;59.512;18.050;2023-07-09T04:21:02;3.80;;;3.40;;
22080;SDS011;11207;59.512;18.050;2023-07-09T04:23:28;4.53;;;4.13;;
22080;SDS011;11207;59.512;18.050;2023-07-09T04:25:54;5.10;;;3.37;;
22080;SDS011;11207;59.512;18.050;2023-07-09T04:28:19;3.83;;;3.43;;
22080;SDS011;11207;59.512;18.050;2023-07-09T04:30:46;4.00;;;3.60;;
22080;SDS011;11207;59.512;18.050;2023-07-09T04:33:13;4.47;;;3.40;;
22080;SDS011;11207;59.512;18.050;2023-07-09T04:35:42;4.57;;;3.90;;
22080;SDS011;11207;59.512;18.050;2023-07-09T04:38:08;4.30;;;3.70;;
22080;SDS011;11207;59.512;18.050;2023-07-09T04:40:34;5.30;;;3.73;;
22080;SDS011;11207;59.512;18.050;2023-07-09T04:42:59;3.97;;;3.57;;
22080;SDS011;11207;59.512;18.050;2023-07-09T04:45:25;4.27;;;3.87;;
22080;SDS011;11207;59.512;18.050;2023-07-09T04:47:50;7.63;;;3.60;;
22080;SDS011;11207;59.512;18.050;2023-07-09T04:50:17;4.97;;;3.90;;
22080;SDS011;11207;59.512;18.050;2023-07-09T04:52:43;4.13;;;3.60;;
22080;SDS011;11207;59.512;18.050;2023-07-09T04:55:09;4.93;;;3.33;;
22080;SDS011;11207;59.512;18.050;2023-07-09T04:57:34;4.13;;;3.17;;
22080;SDS011;11207;59.512;18.050;2023-07-09T05:00:01;4.93;;;3.93;;
22080;SDS011;11207;59.512;18.050;2023-07-09T05:02:29;4.27;;;3.87;;
22080;SDS011;11207;59.512;18.050;2023-07-09T05:04:55;3.70;;;3.40;;
22080;SDS011;11207;59.512;18.050;2023-07-09T05:07:21;4.17;;;3.77;;
22080;SDS011;11207;59.512;18.050;2023-07-09T05:09:46;4.10;;;3.67;;
22080;SDS011;11207;59.512;18.050;2023-07-09T05:12:12;4.63;;;3.47;;
22080;SDS011;11207;59.512;18.050;2023-07-09T05:14:38;3.80;;;3.50;;
22080;SDS011;11207;59.512;18.050;2023-07-09T05:17:05;4.33;;;3.47;;
22080;SDS011;11207;59.512;18.050;2023-07-09T05:19:31;3.77;;;3.00;;
22080;SDS011;11207;59.512;18.050;2023-07-09T05:21:57;3.77;;;3.00;;
22080;SDS011;11207;59.512;18.050;2023-07-09T05:24:23;8.00;;;4.10;;
22080;SDS011;11207;59.512;18.050;2023-07-09T05:26:49;3.40;;;3.10;;
22080;SDS011;11207;59.512;18.050;2023-07-09T05:29:14;3.73;;;3.43;;
22080;SDS011;11207;59.512;18.050;2023-07-09T05:31:40;5.10;;;3.87;;
22080;SDS011;11207;59.512;18.050;2023-07-09T05:34:07;5.20;;;4.17;;
22080;SDS011;11207;59.512;18.050;2023-07-09T05:36:33;4.47;;;3.83;;
22080;SDS011;11207;59.512;18.050;2023-07-09T05:38:58;5.27;;;4.13;;
22080;SDS011;11207;59.512;18.050;2023-07-09T05:41:24;4.13;;;3.70;;
22080;SDS011;11207;59.512;18.050;2023-07-09T05:43:50;5.20;;;4.37;;
22080;SDS011;11207;59.512;18.050;2023-07-09T05:46:17;4.80;;;3.80;;
22080;SDS011;11207;59.512;18.050;2023-07-09T05:48:43;6.13;;;4.10;;
22080;SDS011;11207;59.512;18.050;2023-07-09T05:51:09;5.20;;;4.10;;
22080;SDS011;11207;59.512;18.050;2023-07-09T05:53:35;4.40;;;3.97;;
22080;SDS011;11207;59.512;18.050;2023-07-09T05:56:01;5.27;;;3.80;;
22080;SDS011;11207;59.512;18.050;2023-07-09T05:58:26;5.70;;;4.10;;
22080;SDS011;11207;59.512;18.050;2023-07-09T06:00:53;5.53;;;4.47;;
22080;SDS011;11207;59.512;18.050;2023-07-09T06:03:22;6.63;;;3.60;;
22080;SDS011;11207;59.512;18.050;2023-07-09T06:05:49;4.03;;;3.63;;
22080;SDS011;11207;59.512;18.050;2023-07-09T06:08:15;3.80;;;3.50;;
22080;SDS011;11207;59.512;18.050;2023-07-09T06:10:52;4.00;;;3.60;;
22080;SDS011;11207;59.512;18.050;2023-07-09T06:13:19;4.18;;;3.20;;
22080;SDS011;11207;59.512;18.050;2023-07-09T06:15:48;5.10;;;3.87;;
22080;SDS011;11207;59.512;18.050;2023-07-09T06:18:13;4.37;;;3.90;;
22080;SDS011;11207;59.512;18.050;2023-07-09T06:20:39;5.00;;;3.80;;
22080;SDS011;11207;59.512;18.050;2023-07-09T06:23:05;3.47;;;3.17;;
22080;SDS011;11207;59.512;18.050;2023-07-09T06:25:30;3.90;;;3.50;;
22080;SDS011;11207;59.512;18.050;2023-07-09T06:27:56;5.43;;;3.30;;
22080;SDS011;11207;59.512;18.050;2023-07-09T06:30:23;3.83;;;3.47;;
22080;SDS011;11207;59.512;18.050;2023-07-09T06:32:48;5.47;;;3.30;;
22080;SDS011;11207;59.512;18.050;2023-07-09T06:35:14;5.82;;;4.03;;
22080;SDS011;11207;59.512;18.050;2023-07-09T06:37:39;3.83;;;3.35;;
22080;SDS011;11207;59.512;18.050;2023-07-09T06:40:05;3.90;;;3.50;;
22080;SDS011;11207;59.512;18.050;2023-07-09T06:42:33;4.87;;;3.47;;
22080;SDS011;11207;59.512;18.050;2023-07-09T06:45:01;3.42;;;3.12;;
22080;SDS011;11207;59.512;18.050;2023-07-09T06:47:29;4.20;;;3.42;;
22080;SDS011;11207;59.512;18.050;2023-07-09T06:49:55;6.85;;;3.55;;
22080;SDS011;11207;59.512;18.050;2023-07-09T06:52:20;3.58;;;3.28;;
22080;SDS011;11207;59.512;18.050;2023-07-09T06:54:46;7.03;;;3.45;;
22080;SDS011;11207;59.512;18.050;2023-07-09T06:57:12;3.40;;;3.10;;
22080;SDS011;11207;59.512;18.050;2023-07-09T06:59:37;4.67;;;3.00;;
22080;SDS011;11207;59.512;18.050;2023-07-09T07:02:03;3.10;;;2.85;;
22080;SDS011;11207;59.512;18.050;2023-07-09T07:04:28;2.87;;;2.67;;
22080;SDS011;11207;59.512;18.050;2023-07-09T07:06:54;3.10;;;2.80;;
22080;SDS011;11207;59.512;18.050;2023-07-09T07:09:22;8.13;;;3.08;;
22080;SDS011;11207;59.512;18.050;2023-07-09T07:11:49;3.65;;;3.00;;
22080;SDS011;11207;59.512;18.050;2023-07-09T07:14:14;4.95;;;2.60;;
22080;SDS011;11207;59.512;18.050;2023-07-09T07:16:40;4.35;;;2.60;;
22080;SDS011;11207;59.512;18.050;2023-07-09T07:19:06;3.17;;;2.85;;
22080;SDS011;11207;59.512;18.050;2023-07-09T07:21:32;3.37;;;2.53;;
22080;SDS011;11207;59.512;18.050;2023-07-09T07:23:57;3.45;;;2.37;;
22080;SDS011;11207;59.512;18.050;2023-07-09T07:26:23;3.33;;;2.78;;
22080;SDS011;11207;59.512;18.050;2023-07-09T07:28:48;4.25;;;2.83;;
22080;SDS011;11207;59.512;18.050;2023-07-09T07:31:15;2.65;;;2.45;;
22080;SDS011;11207;59.512;18.050;2023-07-09T07:33:41;5.75;;;2.70;;
22080;SDS011;11207;59.512;18.050;2023-07-09T07:36:10;3.03;;;2.35;;
22080;SDS011;11207;59.512;18.050;2023-07-09T07:38:36;2.50;;;2.30;;
22080;SDS011;11207;59.512;18.050;2023-07-09T07:41:02;2.83;;;2.55;;
22080;SDS011;11207;59.512;18.050;2023-07-09T07:43:28;2.28;;;2.08;;
22080;SDS011;11207;59.512;18.050;2023-07-09T07:45:53;2.65;;;2.33;;
22080;SDS011;11207;59.512;18.050;2023-07-09T07:48:19;2.30;;;2.10;;
22080;SDS011;11207;59.512;18.050;2023-07-09T07:50:45;2.50;;;2.30;;
22080;SDS011;11207;59.512;18.050;2023-07-09T07:53:13;3.25;;;2.53;;
22080;SDS011;11207;59.512;18.050;2023-07-09T07:55:39;2.33;;;2.12;;
22080;SDS011;11207;59.512;18.050;2023-07-09T07:58:07;2.33;;;2.12;;
22080;SDS011;11207;59.512;18.050;2023-07-09T08:00:35;2.55;;;2.00;;
22080;SDS011;11207;59.512;18.050;2023-07-09T08:03:02;2.35;;;2.15;;
22080;SDS011;11207;59.512;18.050;2023-07-09T08:05:29;2.95;;;2.12;;
22080;SDS011;11207;59.512;18.050;2023-07-09T08:07:55;3.62;;;2.05;;
22080;SDS011;11207;59.512;18.050;2023-07-09T08:10:20;2.10;;;1.83;;
22080;SDS011;11207;59.512;18.050;2023-07-09T08:12:46;2.67;;;2.00;;
22080;SDS011;11207;59.512;18.050;2023-07-09T08:15:12;3.87;;;2.20;;
22080;SDS011;11207;59.512;18.050;2023-07-09T08:17:38;2.67;;;1.98;;
22080;SDS011;11207;59.512;18.050;2023-07-09T08:20:04;2.00;;;1.83;;
22080;SDS011;11207;59.512;18.050;2023-07-09T08:22:30;2.20;;;2.00;;
22080;SDS011;11207;59.512;18.050;2023-07-09T08:24:56;1.92;;;1.83;;
22080;SDS011;11207;59.512;18.050;2023-07-09T08:27:21;2.70;;;2.00;;
22080;SDS011;11207;59.512;18.050;2023-07-09T08:29:47;2.08;;;1.98;;
22080;SDS011;11207;59.512;18.050;2023-07-09T08:32:13;2.00;;;1.90;;
22080;SDS011;11207;59.512;18.050;2023-07-09T08:34:39;2.55;;;1.80;;
22080;SDS011;11207;59.512;18.050;2023-07-09T08:37:06;1.90;;;1.80;;
22080;SDS011;11207;59.512;18.050;2023-07-09T08:39:33;2.20;;;2.00;;
22080;SDS011;11207;59.512;18.050;2023-07-09T08:42:03;2.17;;;1.98;;
22080;SDS011;11207;59.512;18.050;2023-07-09T08:50:24;4.37;;;1.85;;
22080;SDS011;11207;59.512;18.050;2023-07-09T08:52:59;2.08;;;1.70;;
22080;SDS011;11207;59.512;18.050;2023-07-09T08:55:27;2.58;;;1.58;;
22080;SDS011;11207;59.512;18.050;2023-07-09T08:58:01;1.58;;;1.42;;
22080;SDS011;11207;59.512;18.050;2023-07-09T09:00:34;1.77;;;1.50;;
22080;SDS011;11207;59.512;18.050;2023-07-09T09:03:09;2.65;;;1.30;;
22080;SDS011;11207;59.512;18.050;2023-07-09T09:05:41;1.50;;;1.40;;
22080;SDS011;11207;59.512;18.050;2023-07-09T09:10:50;1.83;;;1.50;;
22080;SDS011;11207;59.512;18.050;2023-07-09T09:13:23;1.30;;;1.20;;
22080;SDS011;11207;59.512;18.050;2023-07-09T09:15:52;2.47;;;1.52;;
22080;SDS011;11207;59.512;18.050;2023-07-09T09:18:22;1.42;;;1.33;;
22080;SDS011;11207;59.512;18.050;2023-07-09T09:21:14;3.12;;;1.50;;
22080;SDS011;11207;59.512;18.050;2023-07-09T09:23:54;1.37;;;1.27;;
22080;SDS011;11207;59.512;18.050;2023-07-09T09:26:25;1.20;;;1.20;;
22080;SDS011;11207;59.512;18.050;2023-07-09T09:28:56;1.52;;;1.42;;
22080;SDS011;11207;59.512;18.050;2023-07-09T09:31:23;1.67;;;1.35;;
22080;SDS011;11207;59.512;18.050;2023-07-09T09:33:52;1.58;;;1.48;;
22080;SDS011;11207;59.512;18.050;2023-07-09T09:36:24;1.50;;;1.40;;
22080;SDS011;11207;59.512;18.050;2023-07-09T09:38:52;1.58;;;1.40;;
22080;SDS011;11207;59.512;18.050;2023-07-09T09:41:22;1.98;;;1.70;;
22080;SDS011;11207;59.512;18.050;2023-07-09T09:43:51;1.05;;;1.05;;
22080;SDS011;11207;59.512;18.050;2023-07-09T09:46:19;1.80;;;1.62;;
22080;SDS011;11207;59.512;18.050;2023-07-09T09:48:47;1.42;;;1.30;;
22080;SDS011;11207;59.512;18.050;2023-07-09T09:51:15;2.90;;;1.40;;
22080;SDS011;11207;59.512;18.050;2023-07-09T09:53:45;3.05;;;1.50;;
22080;SDS011;11207;59.512;18.050;2023-07-09T09:56:19;1.65;;;1.50;;
22080;SDS011;11207;59.512;18.050;2023-07-09T09:58:51;1.50;;;1.40;;
22080;SDS011;11207;59.512;18.050;2023-07-09T10:01:19;1.73;;;1.42;;
22080;SDS011;11207;59.512;18.050;2023-07-09T10:03:47;1.60;;;1.50;;
22080;SDS011;11207;59.512;18.050;2023-07-09T10:06:18;1.50;;;1.40;;
22080;SDS011;11207;59.512;18.050;2023-07-09T10:08:57;1.37;;;1.27;;
22080;SDS011;11207;59.512;18.050;2023-07-09T10:11:38;1.50;;;1.40;;
22080;SDS011;11207;59.512;18.050;2023-07-09T10:16:52;3.60;;;1.30;;
22080;SDS011;11207;59.512;18.050;2023-07-09T10:22:09;1.15;;;1.15;;
22080;SDS011;11207;59.512;18.050;2023-07-09T10:25:01;1.08;;;1.08;;
22080;SDS011;11207;59.512;18.050;2023-07-09T10:30:30;2.30;;;1.40;;
22080;SDS011;11207;59.512;18.050;2023-07-09T10:33:08;1.23;;;1.20;;
22080;SDS011;11207;59.512;18.050;2023-07-09T10:35:41;1.23;;;1.15;;
22080;SDS011;11207;59.512;18.050;2023-07-09T10:38:50;1.17;;;1.10;;
22080;SDS011;11207;59.512;18.050;2023-07-09T10:41:24;1.35;;;1.27;;
22080;SDS011;11207;59.512;18.050;2023-07-09T10:43:53;1.20;;;1.10;;
22080;SDS011;11207;59.512;18.050;2023-07-09T10:46:31;2.50;;;1.40;;
22080;SDS011;11207;59.512;18.050;2023-07-09T10:49:00;1.40;;;1.30;;
22080;SDS011;11207;59.512;18.050;2023-07-09T10:54:21;1.30;;;1.20;;
22080;SDS011;11207;59.512;18.050;2023-07-09T10:56:56;1.40;;;1.30;;
22080;SDS011;11207;59.512;18.050;2023-07-09T10:59:29;1.40;;;1.30;;
22080;SDS011;11207;59.512;18.050;2023-07-09T11:02:01;1.58;;;1.40;;
22080;SDS011;11207;59.512;18.050;2023-07-09T11:04:35;3.12;;;1.33;;
22080;SDS011;11207;59.512;18.050;2023-07-09T11:07:09;1.48;;;1.20;;
22080;SDS011;11207;59.512;18.050;2023-07-09T11:09:40;1.48;;;1.20;;
22080;SDS011;11207;59.512;18.050;2023-07-09T11:12:12;1.00;;;1.00;;
22080;SDS011;11207;59.512;18.050;2023-07-09T11:14:42;2.33;;;1.48;;
22080;SDS011;11207;59.512;18.050;2023-07-09T11:17:17;1.37;;;1.20;;
22080;SDS011;11207;59.512;18.050;2023-07-09T11:19:52;1.50;;;1.40;;
22080;SDS011;11207;59.512;18.050;2023-07-09T11:22:22;1.52;;;1.42;;
22080;SDS011;11207;59.512;18.050;2023-07-09T11:24:53;1.05;;;1.05;;
22080;SDS011;11207;59.512;18.050;2023-07-09T11:27:45;1.30;;;1.20;;
22080;SDS011;11207;59.512;18.050;2023-07-09T11:30:24;45.10;;;6.55;;
22080;SDS011;11207;59.512;18.050;2023-07-09T11:32:52;11.88;;;3.60;;
22080;SDS011;11207;59.512;18.050;2023-07-09T11:35:23;3.28;;;1.80;;
22080;SDS011;11207;59.512;18.050;2023-07-09T11:37:50;1.25;;;1.17;;
22080;SDS011;11207;59.512;18.050;2023-07-09T11:40:21;4.03;;;1.90;;
22080;SDS011;11207;59.512;18.050;2023-07-09T11:42:55;1.05;;;1.05;;
22080;SDS011;11207;59.512;18.050;2023-07-09T11:45:28;1.33;;;1.23;;
22080;SDS011;11207;59.512;18.050;2023-07-09T11:47:59;1.25;;;1.10;;
22080;SDS011;11207;59.512;18.050;2023-07-09T11:50:42;1.25;;;1.10;;
22080;SDS011;11207;59.512;18.050;2023-07-09T11:53:54;1.45;;;1.35;;
22080;SDS011;11207;59.512;18.050;2023-07-09T11:56:08;2.87;;;1.27;;
22080;SDS011;11207;59.512;18.050;2023-07-09T11:58:34;1.10;;;1.02;;
22080;SDS011;11207;59.512;18.050;2023-07-09T12:01:00;2.08;;;1.40;;
22080;SDS011;11207;59.512;18.050;2023-07-09T12:03:28;3.17;;;1.40;;
22080;SDS011;11207;59.512;18.050;2023-07-09T12:06:02;1.80;;;1.30;;
22080;SDS011;11207;59.512;18.050;2023-07-09T12:11:04;3.22;;;1.30;;
22080;SDS011;11207;59.512;18.050;2023-07-09T12:13:37;2.62;;;1.30;;
22080;SDS011;11207;59.512;18.050;2023-07-09T12:16:03;1.50;;;1.15;;
22080;SDS011;11207;59.512;18.050;2023-07-09T12:18:29;2.97;;;1.30;;
22080;SDS011;11207;59.512;18.050;2023-07-09T12:20:55;1.90;;;1.30;;
22080;SDS011;11207;59.512;18.050;2023-07-09T12:23:31;1.10;;;1.10;;
22080;SDS011;11207;59.512;18.050;2023-07-09T12:26:01;1.10;;;1.10;;
22080;SDS011;11207;59.512;18.050;2023-07-09T12:28:29;1.20;;;1.10;;
22080;SDS011;11207;59.512;18.050;2023-07-09T12:30:55;1.40;;;1.20;;
22080;SDS011;11207;59.512;18.050;2023-07-09T12:33:22;1.67;;;1.58;;
22080;SDS011;11207;59.512;18.050;2023-07-09T12:35:53;1.52;;;1.42;;
22080;SDS011;11207;59.512;18.050;2023-07-09T12:38:30;1.40;;;1.30;;
22080;SDS011;11207;59.512;18.050;2023-07-09T12:41:11;1.30;;;1.20;;
22080;SDS011;11207;59.512;18.050;2023-07-09T12:43:53;1.50;;;1.40;;
22080;SDS011;11207;59.512;18.050;2023-07-09T12:46:20;1.37;;;1.27;;
22080;SDS011;11207;59.512;18.050;2023-07-09T12:48:47;1.40;;;1.30;;
22080;SDS011;11207;59.512;18.050;2023-07-09T12:51:15;2.30;;;1.30;;
22080;SDS011;11207;59.512;18.050;2023-07-09T12:53:45;1.42;;;1.33;;
22080;SDS011;11207;59.512;18.050;2023-07-09T12:56:11;2.35;;;1.30;;
22080;SDS011;11207;59.512;18.050;2023-07-09T12:58:38;1.75;;;1.52;;
22080;SDS011;11207;59.512;18.050;2023-07-09T13:01:05;1.35;;;1.08;;
22080;SDS011;11207;59.512;18.050;2023-07-09T13:03:33;1.83;;;1.33;;
22080;SDS011;11207;59.512;18.050;2023-07-09T13:08:29;1.50;;;1.40;;
22080;SDS011;11207;59.512;18.050;2023-07-09T13:10:56;1.35;;;1.30;;
22080;SDS011;11207;59.512;18.050;2023-07-09T13:13:23;1.55;;;1.27;;
22080;SDS011;11207;59.512;18.050;2023-07-09T13:18:24;2.97;;;1.50;;
22080;SDS011;11207;59.512;18.050;2023-07-09T13:20:50;1.50;;;1.40;;
22080;SDS011;11207;59.512;18.050;2023-07-09T13:23:23;1.50;;;1.40;;
22080;SDS011;11207;59.512;18.050;2023-07-09T13:25:50;1.60;;;1.50;;
22080;SDS011;11207;59.512;18.050;2023-07-09T13:28:18;1.42;;;1.30;;
22080;SDS011;11207;59.512;18.050;2023-07-09T13:31:13;1.60;;;1.50;;
22080;SDS011;11207;59.512;18.050;2023-07-09T13:33:44;1.50;;;1.40;;
22080;SDS011;11207;59.512;18.050;2023-07-09T13:36:15;1.50;;;1.40;;
22080;SDS011;11207;59.512;18.050;2023-07-09T13:38:41;1.98;;;1.50;;
22080;SDS011;11207;59.512;18.050;2023-07-09T13:41:14;1.95;;;1.48;;
22080;SDS011;11207;59.512;18.050;2023-07-09T13:43:45;2.05;;;1.40;;
22080;SDS011;11207;59.512;18.050;2023-07-09T13:46:12;2.30;;;1.58;;
22080;SDS011;11207;59.512;18.050;2023-07-09T13:48:39;2.85;;;1.50;;
22080;SDS011;11207;59.512;18.050;2023-07-09T13:51:16;4.35;;;1.75;;
22080;SDS011;11207;59.512;18.050;2023-07-09T13:53:48;1.77;;;1.37;;
22080;SDS011;11207;59.512;18.050;2023-07-09T13:56:16;1.80;;;1.50;;
22080;SDS011;11207;59.512;18.050;2023-07-09T13:58:42;2.40;;;1.50;;
22080;SDS011;11207;59.512;18.050;2023-07-09T14:01:12;1.92;;;1.50;;
22080;SDS011;11207;59.512;18.050;2023-07-09T14:03:40;1.62;;;1.52;;
22080;SDS011;11207;59.512;18.050;2023-07-09T14:06:08;1.67;;;1.58;;
22080;SDS011;11207;59.512;18.050;2023-07-09T14:08:38;1.85;;;1.40;;
22080;SDS011;11207;59.512;18.050;2023-07-09T14:11:08;2.33;;;1.70;;
22080;SDS011;11207;59.512;18.050;2023-07-09T14:13:38;1.40;;;1.30;;
22080;SDS011;11207;59.512;18.050;2023-07-09T14:16:04;2.47;;;1.60;;
22080;SDS011;11207;59.512;18.050;2023-07-09T14:18:30;1.48;;;1.37;;
22080;SDS011;11207;59.512;18.050;2023-07-09T14:20:56;1.65;;;1.55;;
22080;SDS011;11207;59.512;18.050;2023-07-09T14:23:22;1.33;;;1.20;;
22080;SDS011;11207;59.512;18.050;2023-07-09T14:25:50;1.55;;;1.45;;
22080;SDS011;11207;59.512;18.050;2023-07-09T14:28:16;1.55;;;1.45;;
22080;SDS011;11207;59.512;18.050;2023-07-09T14:30:44;1.58;;;1.48;;
22080;SDS011;11207;59.512;18.050;2023-07-09T14:33:12;1.83;;;1.48;;
22080;SDS011;11207;59.512;18.050;2023-07-09T14:35:45;2.70;;;1.70;;
22080;SDS011;11207;59.512;18.050;2023-07-09T14:38:19;1.75;;;1.65;;
22080;SDS011;11207;59.512;18.050;2023-07-09T14:40:47;2.30;;;1.50;;
22080;SDS011;11207;59.512;18.050;2023-07-09T14:43:23;2.00;;;1.80;;
22080;SDS011;11207;59.512;18.050;2023-07-09T14:45:49;2.55;;;1.40;;
22080;SDS011;11207;59.512;18.050;2023-07-09T14:48:21;4.75;;;1.40;;
22080;SDS011;11207;59.512;18.050;2023-07-09T14:50:51;1.70;;;1.60;;
22080;SDS011;11207;59.512;18.050;2023-07-09T14:53:26;1.80;;;1.70;;
22080;SDS011;11207;59.512;18.050;2023-07-09T14:55:53;2.08;;;1.55;;
22080;SDS011;11207;59.512;18.050;2023-07-09T14:58:20;2.25;;;1.70;;
22080;SDS011;11207;59.512;18.050;2023-07-09T15:00:48;2.10;;;1.55;;
22080;SDS011;11207;59.512;18.050;2023-07-09T15:03:18;3.45;;;1.40;;
22080;SDS011;11207;59.512;18.050;2023-07-09T15:05:46;1.52;;;1.42;;
22080;SDS011;11207;59.512;18.050;2023-07-09T15:08:12;1.40;;;1.30;;
22080;SDS011;11207;59.512;18.050;2023-07-09T15:10:39;1.60;;;1.50;;